createdAt,value
2018-06-12T00:01:34.014Z,9.07
2018-06-12T00:04:02.665Z,10.50
2018-06-12T00:06:31.249Z,10.70
2018-06-12T00:08:59.797Z,10.63
2018-06-12T00:11:28.294Z,10.37
2018-06-12T00:13:56.780Z,10.50
2018-06-12T00:16:25.303Z,8.60
2018-06-12T00:18:53.807Z,8.53
2018-06-12T00:21:22.317Z,7.93
2018-06-12T00:23:50.785Z,9.70
2018-06-12T00:26:18.945Z,10.47
2018-06-12T00:28:47.449Z,8.87
2018-06-12T00:31:15.955Z,10.87
2018-06-12T00:33:44.454Z,8.83
2018-06-12T00:36:12.967Z,9.77
2018-06-12T00:38:41.490Z,8.17
2018-06-12T00:41:09.987Z,9.47
2018-06-12T00:43:38.511Z,10.60
2018-06-12T00:46:07.015Z,10.80
2018-06-12T00:48:35.530Z,10.27
2018-06-12T00:51:04.161Z,11.63
2018-06-12T00:53:32.661Z,11.30
2018-06-12T00:56:01.795Z,10.37
2018-06-12T00:58:30.313Z,10.70
2018-06-12T01:00:58.832Z,11.70
2018-06-12T01:03:27.402Z,10.63
2018-06-12T01:05:55.906Z,11.27
2018-06-12T01:08:24.425Z,9.90
2018-06-12T01:10:53.250Z,9.93
2018-06-12T01:13:21.791Z,9.60
2018-06-12T01:15:50.305Z,9.77
2018-06-12T01:18:18.823Z,10.93
2018-06-12T01:20:47.617Z,10.93
2018-06-12T01:23:16.238Z,11.07
2018-06-12T01:25:44.765Z,10.10
2018-06-12T01:28:13.310Z,10.83
2018-06-12T01:30:41.939Z,10.63
2018-06-12T01:33:10.464Z,9.47
2018-06-12T01:35:38.986Z,10.60
2018-06-12T01:38:07.462Z,10.77
2018-06-12T01:40:35.975Z,9.50
2018-06-12T01:43:04.485Z,10.80
2018-06-12T01:45:32.617Z,10.27
2018-06-12T01:48:01.196Z,10.43
2018-06-12T01:50:29.801Z,9.07
2018-06-12T01:52:58.309Z,10.70
2018-06-12T01:55:26.493Z,10.43
2018-06-12T01:57:55.005Z,9.13
2018-06-12T02:00:23.508Z,10.80
2018-06-12T02:02:52.025Z,10.60
2018-06-12T02:05:20.544Z,10.60
2018-06-12T02:07:49.062Z,10.40
2018-06-12T02:10:17.549Z,11.07
2018-06-12T02:12:46.083Z,10.10
2018-06-12T02:15:14.617Z,10.60
2018-06-12T02:17:43.154Z,10.43
2018-06-12T02:20:11.748Z,10.57
2018-06-12T02:22:40.259Z,10.90
2018-06-12T02:25:08.429Z,11.23
2018-06-12T02:27:36.958Z,9.30
2018-06-12T02:30:05.527Z,11.70
2018-06-12T02:32:34.036Z,11.27
2018-06-12T02:35:02.553Z,10.20
2018-06-12T02:37:31.071Z,9.30
2018-06-12T02:39:59.574Z,11.37
2018-06-12T02:42:28.062Z,9.10
2018-06-12T02:44:56.240Z,9.70
2018-06-12T02:47:24.741Z,8.73
2018-06-12T02:49:53.225Z,10.50
2018-06-12T02:52:21.730Z,11.73
2018-06-12T02:54:50.230Z,11.70
2018-06-12T02:57:18.743Z,12.57
2018-06-12T02:59:47.857Z,11.67
2018-06-12T03:02:16.346Z,11.93
2018-06-12T03:04:44.906Z,10.57
2018-06-12T03:07:13.389Z,12.50
2018-06-12T03:09:41.930Z,11.87
2018-06-12T03:12:10.486Z,11.73
2018-06-12T03:14:39.056Z,6.93
2018-06-12T03:17:07.662Z,10.83
2018-06-12T03:19:36.202Z,12.17
2018-06-12T03:22:04.715Z,12.20
2018-06-12T03:24:33.207Z,12.07
2018-06-12T03:27:01.734Z,11.67
2018-06-12T03:29:30.293Z,12.63
2018-06-12T03:31:58.802Z,12.20
2018-06-12T03:34:27.385Z,10.87
2018-06-12T03:36:55.925Z,11.77
2018-06-12T03:39:24.471Z,8.33
2018-06-12T03:41:52.962Z,11.70
2018-06-12T03:44:21.495Z,11.50
2018-06-12T03:46:50.026Z,11.90
2018-06-12T03:49:18.539Z,13.00
2018-06-12T03:51:47.130Z,8.77
2018-06-12T03:54:15.703Z,13.20
2018-06-12T03:56:43.932Z,10.67
2018-06-12T03:59:12.457Z,11.93
2018-06-12T04:01:40.961Z,14.00
2018-06-12T04:04:09.431Z,14.20
2018-06-12T04:06:38.225Z,11.37
2018-06-12T04:09:07.377Z,12.10
2018-06-12T04:11:36.126Z,11.20
2018-06-12T04:14:04.675Z,13.67
2018-06-12T04:16:36.096Z,12.93
2018-06-12T04:19:06.248Z,8.57
2018-06-12T04:21:35.520Z,12.63
2018-06-12T04:24:04.036Z,11.83
2018-06-12T04:26:32.601Z,10.93
2018-06-12T04:29:01.127Z,12.63
2018-06-12T04:31:29.705Z,14.73
2018-06-12T04:33:57.856Z,14.17
2018-06-12T04:36:26.422Z,15.37
2018-06-12T04:38:54.956Z,14.10
2018-06-12T04:41:23.513Z,14.40
2018-06-12T04:43:52.056Z,16.50
2018-06-12T04:46:20.629Z,14.97
2018-06-12T04:48:49.202Z,16.27
2018-06-12T04:51:17.773Z,16.97
2018-06-12T04:53:46.270Z,15.63
2018-06-12T04:56:14.760Z,15.57
2018-06-12T04:58:44.080Z,17.20
2018-06-12T05:01:12.609Z,13.33
2018-06-12T05:03:41.119Z,13.90
2018-06-12T05:06:09.783Z,13.27
2018-06-12T05:08:37.952Z,15.77
2018-06-12T05:11:06.512Z,16.50
2018-06-12T05:13:35.136Z,16.47
2018-06-12T05:16:03.714Z,15.80
2018-06-12T05:18:32.246Z,7.37
2018-06-12T05:21:00.857Z,17.47
2018-06-12T05:23:29.466Z,16.50
2018-06-12T05:25:57.981Z,16.87
2018-06-12T05:28:26.498Z,17.13
2018-06-12T05:30:55.133Z,17.17
2018-06-12T05:33:23.317Z,16.30
2018-06-12T05:35:52.137Z,10.77
2018-06-12T05:38:20.653Z,16.77
2018-06-12T05:40:49.167Z,14.07
2018-06-12T05:43:17.693Z,13.00
2018-06-12T05:45:47.614Z,16.17
2018-06-12T05:48:16.102Z,14.97
2018-06-12T05:50:44.640Z,15.53
2018-06-12T05:53:13.202Z,14.27
2018-06-12T05:55:41.730Z,15.10
2018-06-12T05:58:10.874Z,12.37
2018-06-12T06:00:39.446Z,16.00
2018-06-12T06:03:07.998Z,16.60
2018-06-12T06:05:36.499Z,13.13
2018-06-12T06:08:05.026Z,14.37
2018-06-12T06:10:34.171Z,15.20
2018-06-12T06:13:02.645Z,14.27
2018-06-12T06:15:31.390Z,15.20
2018-06-12T06:17:59.924Z,16.03
2018-06-12T06:20:28.441Z,15.67
2018-06-12T06:22:56.946Z,15.23
2018-06-12T06:25:25.150Z,13.10
2018-06-12T06:27:53.681Z,15.17
2018-06-12T06:30:22.186Z,13.13
2018-06-12T06:32:50.729Z,12.97
2018-06-12T06:35:19.262Z,14.73
2018-06-12T06:37:47.764Z,14.57
2018-06-12T06:40:16.294Z,17.00
2018-06-12T06:42:44.820Z,15.40
2018-06-12T06:45:13.328Z,13.57
2018-06-12T06:47:43.336Z,13.33
2018-06-12T06:50:11.826Z,14.30
2018-06-12T06:52:40.350Z,13.83
2018-06-12T06:55:08.886Z,15.83
2018-06-12T06:57:37.469Z,15.87
2018-06-12T07:00:06.087Z,13.37
2018-06-12T07:02:34.640Z,15.87
2018-06-12T07:05:03.219Z,14.43
2018-06-12T07:07:31.817Z,15.23
2018-06-12T07:10:00.375Z,14.47
2018-06-12T07:12:28.896Z,14.07
2018-06-12T07:14:57.529Z,14.30
2018-06-12T07:17:26.043Z,12.00
2018-06-12T07:19:54.542Z,12.97
2018-06-12T07:22:23.143Z,13.97
2018-06-12T07:24:51.664Z,12.43
2018-06-12T07:27:20.316Z,11.77
2018-06-12T07:29:48.844Z,14.37
2018-06-12T07:32:17.445Z,14.30
2018-06-12T07:34:45.994Z,13.77
2018-06-12T07:37:14.479Z,14.47
2018-06-12T07:39:43.001Z,13.63
2018-06-12T07:42:11.484Z,13.67
2018-06-12T07:44:40.033Z,11.80
2018-06-12T07:47:08.564Z,14.10
2018-06-12T07:49:37.090Z,13.33
2018-06-12T07:52:05.726Z,11.20
2018-06-12T07:54:34.228Z,11.63
2018-06-12T07:57:02.867Z,11.60
2018-06-12T07:59:31.433Z,13.63
2018-06-12T08:01:59.946Z,11.60
2018-06-12T08:04:28.477Z,13.00
2018-06-12T08:06:56.974Z,13.17
2018-06-12T08:09:25.485Z,13.07
2018-06-12T08:11:54.010Z,11.57
2018-06-12T08:14:22.493Z,13.30
2018-06-12T08:16:51.641Z,10.57
2018-06-12T08:19:20.114Z,12.23
2018-06-12T08:21:48.652Z,12.40
2018-06-12T08:24:17.211Z,11.87
2018-06-12T08:26:45.870Z,13.30
2018-06-12T08:29:14.375Z,13.33
2018-06-12T08:31:42.838Z,11.67
2018-06-12T08:34:11.314Z,13.97
2018-06-12T08:36:39.837Z,8.83
2018-06-12T08:39:08.573Z,13.30
2018-06-12T08:41:37.218Z,14.20
2018-06-12T08:44:05.769Z,14.63
2018-06-12T08:46:34.294Z,12.67
2018-06-12T08:49:02.941Z,15.17
2018-06-12T08:51:31.542Z,14.47
2018-06-12T08:54:00.521Z,12.80
2018-06-12T08:56:29.086Z,15.07
2018-06-12T08:58:57.609Z,16.33
2018-06-12T09:01:26.193Z,15.40
2018-06-12T09:03:54.502Z,51.83
2018-06-12T09:06:22.998Z,12.10
2018-06-12T09:08:51.502Z,14.30
2018-06-12T09:11:20.063Z,14.27
2018-06-12T09:13:48.706Z,14.50
2018-06-12T09:16:16.843Z,13.63
2018-06-12T09:18:45.427Z,13.27
2018-06-12T09:21:14.017Z,14.43
2018-06-12T09:23:42.614Z,68.33
2018-06-12T09:26:11.116Z,17.60
2018-06-12T09:28:39.645Z,25.63
2018-06-12T09:31:08.183Z,22.43
2018-06-12T09:33:36.785Z,14.93
2018-06-12T09:36:10.770Z,13.10
2018-06-12T09:38:39.282Z,11.40
2018-06-12T09:41:07.783Z,11.83
2018-06-12T09:43:36.294Z,10.73
2018-06-12T09:46:04.915Z,12.63
2018-06-12T09:48:33.501Z,11.37
2018-06-12T09:51:02.065Z,12.30
2018-06-12T09:53:30.601Z,11.53
2018-06-12T09:55:59.090Z,11.10
2018-06-12T09:58:27.808Z,11.83
2018-06-12T10:01:01.734Z,11.97
2018-06-12T10:03:30.268Z,11.63
2018-06-12T10:05:58.799Z,11.83
2018-06-12T10:08:27.144Z,12.20
2018-06-12T10:10:55.786Z,10.60
2018-06-12T10:13:24.283Z,11.47
2018-06-12T10:15:52.475Z,12.00
2018-06-12T10:18:21.010Z,10.87
2018-06-12T10:20:49.510Z,11.37
2018-06-12T10:23:18.032Z,12.30
2018-06-12T10:25:47.745Z,10.23
2018-06-12T10:28:16.291Z,7.23
2018-06-12T10:30:44.822Z,11.77
2018-06-12T10:33:13.369Z,11.30
2018-06-12T10:35:42.513Z,9.90
2018-06-12T10:38:11.063Z,11.67
2018-06-12T10:40:39.594Z,11.47
2018-06-12T10:43:08.119Z,10.10
2018-06-12T10:45:36.615Z,11.87
2018-06-12T10:48:05.222Z,11.70
2018-06-12T10:50:33.785Z,11.50
2018-06-12T10:53:02.352Z,11.00
2018-06-12T10:55:30.593Z,11.83
2018-06-12T10:57:59.105Z,11.90
2018-06-12T11:00:27.330Z,7.30
2018-06-12T11:02:55.871Z,11.40
2018-06-12T11:05:24.041Z,9.83
2018-06-12T11:07:52.541Z,12.20
2018-06-12T11:10:21.086Z,12.20
2018-06-12T11:12:49.641Z,9.80
2018-06-12T11:15:18.162Z,12.67
2018-06-12T11:17:46.692Z,11.23
2018-06-12T11:20:15.225Z,8.23
2018-06-12T11:22:44.322Z,11.83
2018-06-12T11:25:12.874Z,9.50
2018-06-12T11:27:41.432Z,9.27
2018-06-12T11:30:09.935Z,13.00
2018-06-12T11:32:38.461Z,12.57
2018-06-12T11:35:07.002Z,11.50
2018-06-12T11:37:35.660Z,11.83
2018-06-12T11:40:03.953Z,12.43
2018-06-12T11:42:32.581Z,13.50
2018-06-12T11:45:01.135Z,12.30
2018-06-12T11:47:29.678Z,12.93
2018-06-12T11:49:58.180Z,12.60
2018-06-12T11:52:26.437Z,12.27
2018-06-12T11:54:54.944Z,12.80
2018-06-12T11:57:23.595Z,11.50
2018-06-12T11:59:52.113Z,12.67
2018-06-12T12:02:20.598Z,11.97
2018-06-12T12:04:49.119Z,12.50
2018-06-12T12:07:17.678Z,14.47
2018-06-12T12:09:46.217Z,12.13
2018-06-12T12:12:14.726Z,13.60
2018-06-12T12:14:43.349Z,12.70
2018-06-12T12:17:11.862Z,12.00
2018-06-12T12:19:40.406Z,13.00
2018-06-12T12:22:08.895Z,13.57
2018-06-12T12:24:38.042Z,12.07
2018-06-12T12:27:06.614Z,12.37
2018-06-12T12:29:35.130Z,11.97
2018-06-12T12:32:03.686Z,12.17
2018-06-12T12:34:32.235Z,12.60
2018-06-12T12:37:00.765Z,12.40
2018-06-12T12:39:28.976Z,9.87
2018-06-12T12:41:57.484Z,12.50
2018-06-12T12:44:26.012Z,11.90
2018-06-12T12:46:54.518Z,9.90
2018-06-12T12:49:23.053Z,13.07
2018-06-12T12:51:51.545Z,12.10
2018-06-12T12:54:20.029Z,9.37
2018-06-12T12:56:48.579Z,11.87
2018-06-12T12:59:18.130Z,11.43
2018-06-12T13:01:46.698Z,14.67
2018-06-12T13:04:15.276Z,12.30
2018-06-12T13:06:43.919Z,10.23
2018-06-12T13:09:12.457Z,11.80
2018-06-12T13:11:40.982Z,6.87
2018-06-12T13:14:09.567Z,12.83
2018-06-12T13:16:38.178Z,12.40
2018-06-12T13:19:06.701Z,12.40
2018-06-12T13:21:35.690Z,12.93
2018-06-12T13:24:04.219Z,12.20
2018-06-12T13:26:32.789Z,11.90
2018-06-12T13:29:01.336Z,13.00
2018-06-12T13:31:29.848Z,13.70
2018-06-12T13:33:58.532Z,12.10
2018-06-12T13:36:27.045Z,10.97
2018-06-12T13:38:55.577Z,12.47
2018-06-12T13:41:24.117Z,10.07
2018-06-12T13:43:52.621Z,9.13
2018-06-12T13:46:21.207Z,10.60
2018-06-12T13:48:49.699Z,6.57
2018-06-12T13:51:18.221Z,11.50
2018-06-12T13:53:46.719Z,8.60
2018-06-12T13:56:15.249Z,8.33
2018-06-12T13:58:43.852Z,9.47
2018-06-12T14:01:12.353Z,10.53
2018-06-12T14:03:40.953Z,9.83
2018-06-12T14:06:09.470Z,10.80
2018-06-12T14:08:37.971Z,10.07
2018-06-12T14:11:06.491Z,8.90
2018-06-12T14:13:35.051Z,6.70
2018-06-12T14:16:03.622Z,8.47
2018-06-12T14:18:32.195Z,10.17
2018-06-12T14:21:00.663Z,9.87
2018-06-12T14:23:29.178Z,8.33
2018-06-12T14:25:57.709Z,7.73
2018-06-12T14:28:26.218Z,7.30
2018-06-12T14:30:54.773Z,10.00
2018-06-12T14:33:23.281Z,8.97
2018-06-12T14:35:51.863Z,9.23
2018-06-12T14:38:20.379Z,8.73
2018-06-12T14:40:48.902Z,7.77
2018-06-12T14:43:17.514Z,8.93
2018-06-12T14:45:46.010Z,10.13
2018-06-12T14:48:14.661Z,9.87
2018-06-12T14:50:44.448Z,10.00
2018-06-12T14:53:12.953Z,7.03
2018-06-12T14:55:41.478Z,6.73
2018-06-12T14:58:10.122Z,6.97
2018-06-12T15:00:38.721Z,8.37
2018-06-12T15:03:10.607Z,8.50
2018-06-12T15:05:42.829Z,6.47
2018-06-12T15:08:15.079Z,9.00
2018-06-12T15:10:46.922Z,7.77
2018-06-12T15:13:18.700Z,6.23
2018-06-12T15:15:51.138Z,8.73
2018-06-12T15:18:21.675Z,8.70
2018-06-12T15:20:54.241Z,6.90
2018-06-12T15:23:27.120Z,8.57
2018-06-12T15:25:59.406Z,6.87
2018-06-12T15:28:31.398Z,8.10
2018-06-12T15:31:03.867Z,7.20
2018-06-12T15:33:34.460Z,7.47
2018-06-12T15:36:05.159Z,7.00
2018-06-12T15:38:38.879Z,6.30
2018-06-12T15:41:09.413Z,5.93
2018-06-12T15:43:40.348Z,6.77
2018-06-12T15:46:12.080Z,7.40
2018-06-12T15:48:44.294Z,6.20
2018-06-12T15:51:16.230Z,5.50
2018-06-12T15:53:49.702Z,6.20
2018-06-12T15:56:21.671Z,6.97
2018-06-12T15:58:53.737Z,6.13
2018-06-12T16:01:25.890Z,7.97
2018-06-12T16:03:58.621Z,9.07
2018-06-12T16:06:30.712Z,7.87
2018-06-12T16:09:03.000Z,6.30
2018-06-12T16:11:35.120Z,7.37
2018-06-12T16:14:07.479Z,6.10
2018-06-12T16:16:39.962Z,7.20
2018-06-12T16:19:11.591Z,6.03
2018-06-12T16:21:44.616Z,6.60
2018-06-12T16:24:16.354Z,6.43
2018-06-12T16:26:50.609Z,7.17
2018-06-12T16:29:22.326Z,5.73
2018-06-12T16:31:55.702Z,5.77
2018-06-12T16:34:29.743Z,6.93
2018-06-12T16:37:04.525Z,5.77
2018-06-12T16:39:36.194Z,5.70
2018-06-12T16:42:07.564Z,6.53
2018-06-12T16:44:40.268Z,5.70
2018-06-12T16:47:12.616Z,5.37
2018-06-12T16:49:45.294Z,6.03
2018-06-12T16:52:17.208Z,6.30
2018-06-12T16:54:49.725Z,5.87
2018-06-12T16:57:21.722Z,5.33
2018-06-12T16:59:53.941Z,5.00
2018-06-12T17:02:25.073Z,4.70
2018-06-12T17:04:56.528Z,4.57
2018-06-12T17:07:27.825Z,4.07
2018-06-12T17:10:00.607Z,3.57
2018-06-12T17:12:33.283Z,3.63
2018-06-12T17:15:06.286Z,3.60
2018-06-12T17:17:38.048Z,3.50
2018-06-12T17:20:10.117Z,3.53
2018-06-12T17:22:42.002Z,3.63
2018-06-12T17:25:15.361Z,3.90
2018-06-12T17:27:48.985Z,4.37
2018-06-12T17:30:21.777Z,3.87
2018-06-12T17:32:54.227Z,4.30
2018-06-12T17:35:26.972Z,4.50
2018-06-12T17:37:58.674Z,4.67
2018-06-12T17:40:30.917Z,4.63
2018-06-12T17:43:03.389Z,4.40
2018-06-12T17:45:36.247Z,4.73
2018-06-12T17:48:08.431Z,4.87
2018-06-12T17:50:41.044Z,4.03
2018-06-12T17:53:13.411Z,5.23
2018-06-12T17:55:45.477Z,3.70
2018-06-12T17:58:17.875Z,5.03
2018-06-12T18:00:49.838Z,4.47
2018-06-12T18:03:21.458Z,5.07
2018-06-12T18:05:53.378Z,4.43
2018-06-12T18:08:26.167Z,3.80
2018-06-12T18:10:58.870Z,4.40
2018-06-12T18:13:29.998Z,4.17
2018-06-12T18:16:02.154Z,4.13
2018-06-12T18:18:34.390Z,4.40
2018-06-12T18:21:06.489Z,4.27
2018-06-12T18:23:39.295Z,4.50
2018-06-12T18:26:12.126Z,4.23
2018-06-12T18:28:45.343Z,4.27
2018-06-12T18:31:17.896Z,4.33
2018-06-12T18:33:49.918Z,4.50
2018-06-12T18:36:22.789Z,4.10
2018-06-12T18:38:56.158Z,4.27
2018-06-12T18:41:28.029Z,4.50
2018-06-12T18:44:00.496Z,4.37
2018-06-12T18:46:31.889Z,4.30
2018-06-12T18:49:04.245Z,4.00
2018-06-12T18:51:36.997Z,4.20
2018-06-12T18:54:08.693Z,4.30
2018-06-12T18:56:40.928Z,3.93
2018-06-12T18:59:12.763Z,4.17
2018-06-12T19:01:44.026Z,3.40
2018-06-12T19:04:17.136Z,4.20
2018-06-12T19:06:49.209Z,4.10
2018-06-12T19:09:21.769Z,4.27
2018-06-12T19:11:54.541Z,4.10
2018-06-12T19:14:29.081Z,4.23
2018-06-12T19:17:01.520Z,3.53
2018-06-12T19:19:33.433Z,4.23
2018-06-12T19:22:05.585Z,4.17
2018-06-12T19:24:38.718Z,3.90
2018-06-12T19:27:10.470Z,3.83
2018-06-12T19:29:42.164Z,3.87
2018-06-12T19:32:15.050Z,3.40
2018-06-12T19:34:51.474Z,4.30
2018-06-12T19:37:25.127Z,4.10
2018-06-12T19:39:57.439Z,3.77
2018-06-12T19:42:30.118Z,3.67
2018-06-12T19:45:01.875Z,3.20
2018-06-12T19:47:34.153Z,3.23
2018-06-12T19:50:06.645Z,3.30
2018-06-12T19:52:39.211Z,3.30
2018-06-12T19:55:10.937Z,3.10
2018-06-12T19:57:42.964Z,3.50
2018-06-12T20:00:15.191Z,3.23
2018-06-12T20:02:45.420Z,3.20
2018-06-12T20:05:17.298Z,3.30
2018-06-12T20:07:50.796Z,3.27
2018-06-12T20:10:22.629Z,2.97
2018-06-12T20:12:56.017Z,3.20
2018-06-12T20:15:27.842Z,3.37
2018-06-12T20:17:59.777Z,3.50
2018-06-12T20:20:31.274Z,3.07
2018-06-12T20:23:06.267Z,3.17
2018-06-12T20:25:38.436Z,3.40
2018-06-12T20:28:10.545Z,3.30
2018-06-12T20:30:42.459Z,3.17
2018-06-12T20:33:14.504Z,3.13
2018-06-12T20:35:47.147Z,3.30
2018-06-12T20:38:19.883Z,3.27
2018-06-12T20:40:51.951Z,3.30
2018-06-12T20:43:24.904Z,3.00
2018-06-12T20:45:57.304Z,3.10
2018-06-12T20:48:29.671Z,3.40
2018-06-12T20:51:01.814Z,3.30
2018-06-12T20:53:33.423Z,3.20
2018-06-12T20:56:04.886Z,3.30
2018-06-12T20:58:37.466Z,3.00
2018-06-12T21:01:06.024Z,3.30
2018-06-12T21:03:34.581Z,3.37
2018-06-12T21:06:03.149Z,3.20
2018-06-12T21:08:31.310Z,3.80
2018-06-12T21:10:59.907Z,3.83
2018-06-12T21:13:28.422Z,3.80
2018-06-12T21:15:56.921Z,4.20
2018-06-12T21:18:25.458Z,4.00
2018-06-12T21:20:53.999Z,3.93
2018-06-12T21:23:22.594Z,4.10
2018-06-12T21:25:51.164Z,4.13
2018-06-12T21:28:20.886Z,4.73
2018-06-12T21:30:49.413Z,4.20
2018-06-12T21:33:17.592Z,4.20
2018-06-12T21:35:46.934Z,5.50
2018-06-12T21:38:15.405Z,4.70
2018-06-12T21:40:44.002Z,4.50
2018-06-12T21:43:12.516Z,5.00
2018-06-12T21:45:41.066Z,3.10
2018-06-12T21:48:09.605Z,3.03
2018-06-12T21:50:37.825Z,2.70
2018-06-12T21:53:06.365Z,2.80
2018-06-12T21:55:34.570Z,2.40
2018-06-12T21:58:03.062Z,2.50
2018-06-12T22:00:33.858Z,2.30
2018-06-12T22:03:02.457Z,2.47
2018-06-12T22:05:30.966Z,2.50
2018-06-12T22:07:59.511Z,2.53
2018-06-12T22:10:28.087Z,2.20
2018-06-12T22:12:56.595Z,2.53
2018-06-12T22:15:25.214Z,2.70
2018-06-12T22:17:55.150Z,2.40
2018-06-12T22:20:23.699Z,2.60
2018-06-12T22:22:52.198Z,2.30
2018-06-12T22:25:21.493Z,2.67
2018-06-12T22:27:49.981Z,2.40
2018-06-12T22:30:18.470Z,2.13
2018-06-12T22:32:47.004Z,2.60
2018-06-12T22:35:15.490Z,2.30
2018-06-12T22:37:44.042Z,1.90
2018-06-12T22:40:12.540Z,2.23
2018-06-12T22:42:41.035Z,2.50
2018-06-12T22:45:09.529Z,2.20
2018-06-12T22:47:38.049Z,2.20
2018-06-12T22:50:06.575Z,2.27
2018-06-12T22:52:35.108Z,2.10
2018-06-12T22:55:03.706Z,2.30
2018-06-12T22:57:32.240Z,2.60
2018-06-12T23:00:00.456Z,1.83
2018-06-12T23:02:29.018Z,2.70
2018-06-12T23:04:57.184Z,2.53
2018-06-12T23:07:25.672Z,2.80
2018-06-12T23:09:54.166Z,2.30
2018-06-12T23:12:22.671Z,2.60
2018-06-12T23:14:51.275Z,2.30
2018-06-12T23:17:19.801Z,2.40
2018-06-12T23:19:59.540Z,2.60
2018-06-12T23:22:28.035Z,2.50
2018-06-12T23:24:56.535Z,2.37
2018-06-12T23:27:25.112Z,2.57
2018-06-12T23:29:53.704Z,2.60
2018-06-12T23:32:22.235Z,2.40
2018-06-12T23:34:50.762Z,2.60
2018-06-12T23:37:19.250Z,2.23
2018-06-12T23:39:47.448Z,2.50
2018-06-12T23:42:16.981Z,2.50
2018-06-12T23:44:45.596Z,2.50
2018-06-12T23:47:13.786Z,2.70
2018-06-12T23:49:42.386Z,2.50
2018-06-12T23:52:10.904Z,2.33
2018-06-12T23:54:39.461Z,2.70
2018-06-12T23:57:08.028Z,2.40
2018-06-12T23:59:36.554Z,2.50
